createdAt,value
2023-02-27T00:00:20.573Z,-1.91
2023-02-27T00:03:05.756Z,-1.95
2023-02-27T00:05:51.168Z,-1.97
2023-02-27T00:08:36.601Z,-1.99
2023-02-27T00:11:22.059Z,-2.01
2023-02-27T00:14:10.141Z,-2.02
2023-02-27T00:16:55.623Z,-2.05
2023-02-27T00:19:41.131Z,-2.08
2023-02-27T00:22:28.324Z,-2.11
2023-02-27T00:25:14.381Z,-2.13
2023-02-27T00:28:00.532Z,-2.16
2023-02-27T00:30:46.415Z,-2.19
2023-02-27T00:33:31.837Z,-2.20
2023-02-27T00:36:17.315Z,-2.20
2023-02-27T00:39:03.012Z,-2.20
2023-02-27T00:41:48.622Z,-2.20
2023-02-27T00:44:33.880Z,-2.19
2023-02-27T00:47:19.407Z,-2.18
2023-02-27T00:50:05.361Z,-2.17
2023-02-27T00:52:50.990Z,-2.16
2023-02-27T00:55:36.630Z,-2.15
2023-02-27T00:58:22.351Z,-2.15
2023-02-27T01:01:07.773Z,-2.14
2023-02-27T01:03:53.283Z,-2.13
2023-02-27T01:06:38.485Z,-2.12
2023-02-27T01:09:25.091Z,-2.10
2023-02-27T01:12:10.459Z,-2.10
2023-02-27T01:14:55.946Z,-2.10
2023-02-27T01:17:41.396Z,-2.12
2023-02-27T01:20:26.867Z,-2.15
2023-02-27T01:23:12.754Z,-2.16
2023-02-27T01:25:58.403Z,-2.18
2023-02-27T01:28:45.778Z,-2.20
2023-02-27T01:31:31.299Z,-2.22
2023-02-27T01:34:16.891Z,-2.24
2023-02-27T01:37:02.886Z,-2.24
2023-02-27T01:39:48.898Z,-2.27
2023-02-27T01:42:34.410Z,-2.31
2023-02-27T01:45:27.365Z,-2.33
2023-02-27T01:48:31.960Z,-2.36
2023-02-27T01:51:20.744Z,-2.38
2023-02-27T01:54:09.132Z,-2.42
2023-02-27T01:56:54.974Z,-2.45
2023-02-27T01:59:43.818Z,-2.46
2023-02-27T02:02:37.490Z,-2.49
2023-02-27T02:05:23.523Z,-2.50
2023-02-27T02:08:11.834Z,-2.53
2023-02-27T02:10:59.258Z,-2.56
2023-02-27T02:13:44.940Z,-2.57
2023-02-27T02:16:39.475Z,-2.59
2023-02-27T02:19:30.974Z,-2.60
2023-02-27T02:22:38.808Z,-2.64
2023-02-27T02:25:36.526Z,-2.67
2023-02-27T02:28:59.363Z,-2.70
2023-02-27T02:32:24.305Z,-2.75
2023-02-27T02:35:36.021Z,-2.80
2023-02-27T02:38:47.656Z,-2.85
2023-02-27T02:41:42.332Z,-2.88
2023-02-27T02:44:46.483Z,-2.91
2023-02-27T02:47:59.374Z,-2.96
2023-02-27T02:51:04.605Z,-3.00
2023-02-27T02:54:08.387Z,-3.02
2023-02-27T02:57:03.046Z,-3.05
2023-02-27T03:00:06.380Z,-3.08
2023-02-27T03:02:59.341Z,-3.11
2023-02-27T03:05:54.845Z,-3.13
2023-02-27T03:08:50.077Z,-3.17
2023-02-27T03:11:40.208Z,-3.20
2023-02-27T03:14:37.445Z,-3.22
2023-02-27T03:17:28.510Z,-3.23
2023-02-27T03:20:29.565Z,-3.24
2023-02-27T03:23:35.007Z,-3.25
2023-02-27T03:26:27.747Z,-3.26
2023-02-27T03:29:20.180Z,-3.27
2023-02-27T03:32:17.539Z,-3.30
2023-02-27T03:35:05.629Z,-3.30
2023-02-27T03:38:06.450Z,-3.32
2023-02-27T03:41:00.659Z,-3.34
2023-02-27T03:44:25.240Z,-3.36
2023-02-27T03:47:11.022Z,-3.41
2023-02-27T03:49:56.949Z,-3.42
2023-02-27T03:52:43.049Z,-3.44
2023-02-27T03:55:34.095Z,-3.46
2023-02-27T03:58:21.088Z,-3.48
2023-02-27T04:01:06.976Z,-3.52
2023-02-27T04:04:04.196Z,-3.58
2023-02-27T04:07:44.291Z,-3.62
2023-02-27T04:10:53.456Z,-3.68
2023-02-27T04:13:53.875Z,-3.71
2023-02-27T04:16:59.649Z,-3.72
2023-02-27T04:20:01.799Z,-3.73
2023-02-27T04:22:54.986Z,-3.74
2023-02-27T04:26:02.034Z,-3.80
2023-02-27T04:29:04.196Z,-3.85
2023-02-27T04:32:13.327Z,-3.91
2023-02-27T04:35:03.100Z,-3.95
2023-02-27T04:38:16.302Z,-4.00
2023-02-27T04:41:08.777Z,-4.04
2023-02-27T04:43:55.509Z,-4.08
2023-02-27T04:46:43.857Z,-4.15
2023-02-27T04:49:35.745Z,-4.20
2023-02-27T04:52:44.755Z,-4.21
2023-02-27T04:55:39.706Z,-4.23
2023-02-27T04:58:37.294Z,-4.26
2023-02-27T05:01:30.092Z,-4.28
2023-02-27T05:04:23.888Z,-4.30
2023-02-27T05:07:17.280Z,-4.30
2023-02-27T05:10:10.419Z,-4.31
2023-02-27T05:13:09.447Z,-4.28
2023-02-27T05:16:04.172Z,-4.26
2023-02-27T05:18:50.158Z,-4.26
2023-02-27T05:21:42.229Z,-4.24
2023-02-27T05:24:47.932Z,-4.26
2023-02-27T05:27:42.634Z,-4.28
2023-02-27T05:30:36.476Z,-4.31
2023-02-27T05:33:33.371Z,-4.35
2023-02-27T05:36:25.092Z,-4.37
2023-02-27T05:39:11.948Z,-4.39
2023-02-27T05:42:04.118Z,-4.41
2023-02-27T05:44:59.528Z,-4.39
2023-02-27T05:47:52.705Z,-4.37
2023-02-27T05:50:40.007Z,-4.33
2023-02-27T05:53:32.045Z,-4.29
2023-02-27T05:56:21.359Z,-4.25
2023-02-27T05:59:32.494Z,-4.19
2023-02-27T06:02:17.968Z,-4.12
2023-02-27T06:05:03.564Z,-4.06
2023-02-27T06:07:49.401Z,-3.99
2023-02-27T06:10:34.777Z,-3.94
2023-02-27T06:13:20.159Z,-3.87
2023-02-27T06:16:07.129Z,-3.80
2023-02-27T06:18:52.376Z,-3.75
2023-02-27T06:21:37.538Z,-3.70
2023-02-27T06:24:23.228Z,-3.66
2023-02-27T06:27:08.750Z,-3.61
2023-02-27T06:29:54.695Z,-3.56
2023-02-27T06:32:40.465Z,-3.52
2023-02-27T06:35:25.964Z,-3.48
2023-02-27T06:38:11.175Z,-3.46
2023-02-27T06:40:56.577Z,-3.46
2023-02-27T06:43:41.931Z,-3.44
2023-02-27T06:46:27.734Z,-3.44
2023-02-27T06:49:13.869Z,-3.46
2023-02-27T06:52:02.031Z,-3.47
2023-02-27T06:54:47.510Z,-3.49
2023-02-27T06:57:33.070Z,-3.51
2023-02-27T07:00:19.661Z,-3.52
2023-02-27T07:03:05.348Z,-3.53
2023-02-27T07:05:50.744Z,-3.53
2023-02-27T07:08:36.058Z,-3.53
2023-02-27T07:11:21.592Z,-3.57
2023-02-27T07:14:06.880Z,-3.57
2023-02-27T07:16:54.946Z,-3.56
2023-02-27T07:19:40.685Z,-3.53
2023-02-27T07:22:26.116Z,-3.46
2023-02-27T07:25:11.956Z,-3.40
2023-02-27T07:27:57.529Z,-3.33
2023-02-27T07:30:43.609Z,-3.27
2023-02-27T07:33:29.467Z,-3.20
2023-02-27T07:36:14.715Z,-3.16
2023-02-27T07:39:00.148Z,-3.12
2023-02-27T07:41:45.656Z,-3.08
2023-02-27T07:44:35.676Z,-3.07
2023-02-27T07:47:21.234Z,-3.06
2023-02-27T07:50:07.155Z,-3.02
2023-02-27T07:52:53.117Z,-2.99
2023-02-27T07:55:38.632Z,-2.96
2023-02-27T07:58:24.161Z,-2.95
2023-02-27T08:01:12.153Z,-2.90
2023-02-27T08:03:57.700Z,-2.85
2023-02-27T08:06:42.854Z,-2.81
2023-02-27T08:09:28.416Z,-2.76
2023-02-27T08:12:13.844Z,-2.74
2023-02-27T08:14:59.242Z,-2.69
2023-02-27T08:17:48.244Z,-2.65
2023-02-27T08:20:33.745Z,-2.62
2023-02-27T08:23:19.026Z,-2.55
2023-02-27T08:26:04.626Z,-2.50
2023-02-27T08:28:50.222Z,-2.46
2023-02-27T08:31:36.018Z,-2.37
2023-02-27T08:34:21.804Z,-2.33
2023-02-27T08:37:07.124Z,-2.28
2023-02-27T08:39:52.584Z,-2.26
2023-02-27T08:42:38.341Z,-2.21
2023-02-27T08:45:23.981Z,-2.13
2023-02-27T08:48:10.435Z,-2.06
2023-02-27T08:50:57.838Z,-1.95
2023-02-27T08:53:43.733Z,-1.83
2023-02-27T08:56:29.454Z,-1.71
2023-02-27T08:59:16.045Z,-1.64
2023-02-27T09:02:01.667Z,-1.57
2023-02-27T09:04:46.903Z,-1.53
2023-02-27T09:07:36.884Z,-1.44
2023-02-27T09:10:22.714Z,-1.36
2023-02-27T09:13:08.014Z,-1.33
2023-02-27T09:15:54.294Z,-1.30
2023-02-27T09:18:39.852Z,-1.23
2023-02-27T09:21:25.469Z,-1.20
2023-02-27T09:24:19.932Z,-1.15
2023-02-27T09:27:06.431Z,-1.06
2023-02-27T09:29:56.371Z,-0.99
2023-02-27T09:32:42.608Z,-0.93
2023-02-27T09:35:28.140Z,-0.89
2023-02-27T09:38:13.846Z,-0.84
2023-02-27T09:40:59.635Z,-0.81
2023-02-27T09:43:49.158Z,-0.80
2023-02-27T09:46:34.495Z,-0.77
2023-02-27T09:49:22.264Z,-0.72
2023-02-27T09:52:13.510Z,-0.68
2023-02-27T09:54:59.414Z,-0.70
2023-02-27T09:57:56.338Z,-0.74
2023-02-27T10:00:49.072Z,-0.75
2023-02-27T10:03:41.676Z,-0.71
2023-02-27T10:06:43.824Z,-0.70
2023-02-27T10:09:52.669Z,-0.71
2023-02-27T10:13:03.472Z,-0.70
2023-02-27T10:15:51.752Z,-0.69
2023-02-27T10:18:59.460Z,-0.75
2023-02-27T10:21:48.664Z,-0.78
2023-02-27T10:24:51.178Z,-0.81
2023-02-27T10:27:37.963Z,-0.85
2023-02-27T10:30:30.049Z,-0.88
2023-02-27T10:33:36.860Z,-0.86
2023-02-27T10:36:33.628Z,-0.87
2023-02-27T10:39:21.174Z,-0.88
2023-02-27T10:42:10.826Z,-0.90
2023-02-27T10:44:56.408Z,-0.85
2023-02-27T10:47:43.184Z,-0.84
2023-02-27T10:50:32.250Z,-0.87
2023-02-27T10:53:25.265Z,-0.89
2023-02-27T10:56:16.497Z,-0.89
2023-02-27T10:59:08.170Z,-0.91
2023-02-27T11:02:01.327Z,-0.90
2023-02-27T11:04:55.662Z,-0.86
2023-02-27T11:07:41.192Z,-0.79
2023-02-27T11:10:29.032Z,-0.76
2023-02-27T11:13:24.697Z,-0.70
2023-02-27T11:16:16.775Z,-0.63
2023-02-27T11:19:35.871Z,-0.56
2023-02-27T11:22:24.539Z,-0.47
2023-02-27T11:25:26.191Z,-0.43
2023-02-27T11:28:28.616Z,-0.39
2023-02-27T11:31:22.463Z,-0.31
2023-02-27T11:34:08.416Z,-0.31
2023-02-27T11:37:26.316Z,-0.38
2023-02-27T11:40:14.671Z,-0.46
2023-02-27T11:43:47.234Z,-0.47
2023-02-27T11:46:46.411Z,-0.45
2023-02-27T11:49:37.198Z,-0.46
2023-02-27T11:52:34.199Z,-0.49
2023-02-27T11:55:28.028Z,-0.50
2023-02-27T11:58:19.026Z,-0.46
2023-02-27T12:01:08.591Z,-0.43
2023-02-27T12:04:10.107Z,-0.39
2023-02-27T12:07:34.569Z,-0.39
2023-02-27T12:10:28.585Z,-0.31
2023-02-27T12:13:19.550Z,-0.24
2023-02-27T12:16:25.034Z,-0.17
2023-02-27T12:20:04.697Z,-0.17
2023-02-27T12:22:53.770Z,-0.25
2023-02-27T12:25:52.521Z,-0.24
2023-02-27T12:29:02.240Z,-0.28
2023-02-27T12:31:54.428Z,-0.27
2023-02-27T12:34:49.810Z,-0.22
2023-02-27T12:37:38.041Z,-0.16
2023-02-27T12:40:35.876Z,-0.10
2023-02-27T12:43:40.571Z,-0.05
2023-02-27T12:46:40.725Z,-0.04
2023-02-27T12:49:52.992Z,-0.02
2023-02-27T12:52:56.908Z,-0.01
2023-02-27T12:56:04.280Z,0.02
2023-02-27T12:59:08.079Z,-0.01
2023-02-27T13:02:14.343Z,0.02
2023-02-27T13:05:24.158Z,0.02
2023-02-27T13:08:39.852Z,0.03
2023-02-27T13:12:02.192Z,-0.02
2023-02-27T13:15:00.000Z,-0.02
2023-02-27T13:18:08.269Z,0.03
2023-02-27T13:20:59.548Z,0.11
2023-02-27T13:24:02.761Z,0.16
2023-02-27T13:26:57.825Z,0.25
2023-02-27T13:29:52.553Z,0.35
2023-02-27T13:32:48.942Z,0.41
2023-02-27T13:35:58.335Z,0.44
2023-02-27T13:38:48.248Z,0.47
2023-02-27T13:41:38.595Z,0.48
2023-02-27T13:44:24.175Z,0.52
2023-02-27T13:47:38.369Z,0.55
2023-02-27T13:50:26.917Z,0.52
2023-02-27T13:53:17.723Z,0.46
2023-02-27T13:56:21.947Z,0.50
2023-02-27T13:59:35.133Z,0.54
2023-02-27T14:02:30.924Z,0.52
2023-02-27T14:05:17.251Z,0.50
2023-02-27T14:08:11.900Z,0.45
2023-02-27T14:11:17.777Z,0.44
2023-02-27T14:14:04.231Z,0.55
2023-02-27T14:16:51.031Z,0.57
2023-02-27T14:19:42.643Z,0.54
2023-02-27T14:22:44.079Z,0.51
2023-02-27T14:26:18.023Z,0.46
2023-02-27T14:29:04.389Z,0.44
2023-02-27T14:31:53.135Z,0.36
2023-02-27T14:34:40.756Z,0.28
2023-02-27T14:37:27.607Z,0.20
2023-02-27T14:40:29.673Z,0.12
2023-02-27T14:43:56.747Z,0.05
2023-02-27T14:46:42.484Z,0.04
2023-02-27T14:49:35.537Z,0.05
2023-02-27T14:52:23.563Z,0.05
2023-02-27T14:55:29.826Z,0.06
2023-02-27T14:58:18.477Z,0.09
2023-02-27T15:01:09.856Z,0.06
2023-02-27T15:03:59.227Z,0.08
2023-02-27T15:06:48.947Z,0.12
2023-02-27T15:09:44.678Z,0.15
2023-02-27T15:12:31.230Z,0.15
2023-02-27T15:15:21.888Z,0.19
2023-02-27T15:18:15.138Z,0.24
2023-02-27T15:21:00.281Z,0.29
2023-02-27T15:24:04.103Z,0.35
2023-02-27T15:26:54.561Z,0.39
2023-02-27T15:29:48.093Z,0.39
2023-02-27T15:32:36.343Z,0.41
2023-02-27T15:35:26.898Z,0.41
2023-02-27T15:38:24.499Z,0.34
2023-02-27T15:41:13.681Z,0.27
2023-02-27T15:43:59.419Z,0.22
2023-02-27T15:46:46.540Z,0.20
2023-02-27T15:49:32.052Z,0.17
2023-02-27T15:52:26.591Z,0.13
2023-02-27T15:55:24.603Z,0.09
2023-02-27T15:58:19.403Z,0.06
2023-02-27T16:01:09.354Z,0.00
2023-02-27T16:04:14.337Z,-0.04
2023-02-27T16:07:05.511Z,-0.08
2023-02-27T16:10:02.920Z,-0.12
2023-02-27T16:12:48.235Z,-0.13
2023-02-27T16:15:36.381Z,-0.15
2023-02-27T16:18:46.026Z,-0.19
2023-02-27T16:21:31.416Z,-0.24
2023-02-27T16:24:21.942Z,-0.30
2023-02-27T16:27:25.635Z,-0.36
2023-02-27T16:30:12.606Z,-0.40
2023-02-27T16:33:01.935Z,-0.47
2023-02-27T16:35:47.811Z,-0.52
2023-02-27T16:38:33.469Z,-0.57
2023-02-27T16:41:21.394Z,-0.61
2023-02-27T16:44:06.816Z,-0.65
2023-02-27T16:46:56.642Z,-0.69
2023-02-27T16:49:44.367Z,-0.70
2023-02-27T16:52:29.961Z,-0.73
2023-02-27T16:55:15.447Z,-0.76
2023-02-27T16:58:00.829Z,-0.81
2023-02-27T17:00:49.197Z,-0.85
2023-02-27T17:03:34.954Z,-0.88
2023-02-27T17:06:20.565Z,-0.91
2023-02-27T17:09:05.915Z,-0.94
2023-02-27T17:11:51.185Z,-0.95
2023-02-27T17:14:36.555Z,-0.95
2023-02-27T17:17:21.993Z,-0.95
2023-02-27T17:20:08.360Z,-0.94
2023-02-27T17:22:53.669Z,-0.95
2023-02-27T17:25:40.730Z,-0.92
2023-02-27T17:28:26.215Z,-0.92
2023-02-27T17:31:15.227Z,-0.91
2023-02-27T17:34:01.200Z,-0.91
2023-02-27T17:36:48.381Z,-0.91
2023-02-27T17:39:34.226Z,-0.92
2023-02-27T17:42:19.737Z,-0.92
2023-02-27T17:45:06.929Z,-0.93
2023-02-27T17:47:52.312Z,-0.94
2023-02-27T17:50:37.702Z,-0.99
2023-02-27T17:53:23.098Z,-0.98
2023-02-27T17:56:09.440Z,-0.99
2023-02-27T17:58:55.103Z,-1.02
2023-02-27T18:01:40.504Z,-1.02
2023-02-27T18:04:25.940Z,-1.05
2023-02-27T18:07:11.212Z,-1.06
2023-02-27T18:09:56.700Z,-1.12
2023-02-27T18:12:42.297Z,-1.17
2023-02-27T18:15:27.998Z,-1.19
2023-02-27T18:18:16.310Z,-1.21
2023-02-27T18:21:08.323Z,-1.21
2023-02-27T18:23:54.717Z,-1.21
2023-02-27T18:26:40.231Z,-1.23
2023-02-27T18:29:26.222Z,-1.23
2023-02-27T18:32:12.932Z,-1.23
2023-02-27T18:34:58.578Z,-1.25
2023-02-27T18:37:43.873Z,-1.28
2023-02-27T18:40:29.730Z,-1.32
2023-02-27T18:43:15.247Z,-1.35
2023-02-27T18:46:00.984Z,-1.38
2023-02-27T18:48:46.593Z,-1.41
2023-02-27T18:51:32.302Z,-1.43
2023-02-27T18:54:17.740Z,-1.43
2023-02-27T18:57:03.408Z,-1.46
2023-02-27T18:59:49.230Z,-1.47
2023-02-27T19:02:37.224Z,-1.47
2023-02-27T19:05:22.681Z,-1.49
2023-02-27T19:08:08.003Z,-1.50
2023-02-27T19:10:53.559Z,-1.54
2023-02-27T19:13:39.046Z,-1.54
2023-02-27T19:16:24.601Z,-1.55
2023-02-27T19:19:10.926Z,-1.56
2023-02-27T19:21:56.637Z,-1.57
2023-02-27T19:24:42.246Z,-1.58
2023-02-27T19:27:27.743Z,-1.58
2023-02-27T19:30:14.929Z,-1.58
2023-02-27T19:33:00.877Z,-1.58
2023-02-27T19:35:46.275Z,-1.58
2023-02-27T19:38:31.532Z,-1.59
2023-02-27T19:41:17.809Z,-1.59
2023-02-27T19:44:03.544Z,-1.59
2023-02-27T19:46:51.823Z,-1.61
2023-02-27T19:49:37.762Z,-1.61
2023-02-27T19:52:24.368Z,-1.63
2023-02-27T19:55:10.393Z,-1.63
2023-02-27T19:57:56.323Z,-1.63
2023-02-27T20:00:41.974Z,-1.64
2023-02-27T20:03:29.332Z,-1.66
2023-02-27T20:06:20.294Z,-1.66
2023-02-27T20:09:05.916Z,-1.68
2023-02-27T20:11:53.904Z,-1.71
2023-02-27T20:14:40.151Z,-1.73
2023-02-27T20:17:25.672Z,-1.76
2023-02-27T20:20:11.826Z,-1.80
2023-02-27T20:22:59.008Z,-1.85
2023-02-27T20:25:44.098Z,-1.90
2023-02-27T20:28:29.680Z,-1.95
2023-02-27T20:31:16.775Z,-1.99
2023-02-27T20:34:06.036Z,-2.02
2023-02-27T20:36:52.733Z,-2.04
2023-02-27T20:39:38.327Z,-2.07
2023-02-27T20:42:23.740Z,-2.11
2023-02-27T20:45:09.396Z,-2.13
2023-02-27T20:47:55.689Z,-2.14
2023-02-27T20:50:41.653Z,-2.14
2023-02-27T20:53:26.950Z,-2.15
2023-02-27T20:56:12.376Z,-2.16
2023-02-27T20:58:59.745Z,-2.18
2023-02-27T21:01:51.602Z,-2.21
2023-02-27T21:04:43.181Z,-2.22
2023-02-27T21:07:29.078Z,-2.27
2023-02-27T21:10:14.294Z,-2.29
2023-02-27T21:12:59.690Z,-2.34
2023-02-27T21:15:45.707Z,-2.37
2023-02-27T21:18:31.642Z,-2.41
2023-02-27T21:21:26.481Z,-2.45
2023-02-27T21:24:12.329Z,-2.48
2023-02-27T21:27:00.029Z,-2.53
2023-02-27T21:29:45.675Z,-2.58
2023-02-27T21:32:31.109Z,-2.60
2023-02-27T21:35:16.626Z,-2.62
2023-02-27T21:38:01.828Z,-2.64
2023-02-27T21:40:47.451Z,-2.65
2023-02-27T21:43:33.939Z,-2.67
2023-02-27T21:46:20.826Z,-2.66
2023-02-27T21:49:06.770Z,-2.66
2023-02-27T21:51:54.304Z,-2.66
2023-02-27T21:54:39.656Z,-2.64
2023-02-27T21:57:24.927Z,-2.62
2023-02-27T22:00:11.517Z,-2.62
2023-02-27T22:02:57.057Z,-2.61
2023-02-27T22:05:43.842Z,-2.60
2023-02-27T22:08:29.134Z,-2.62
2023-02-27T22:11:14.748Z,-2.62
2023-02-27T22:14:00.296Z,-2.62
2023-02-27T22:16:46.180Z,-2.62
2023-02-27T22:19:31.568Z,-2.63
2023-02-27T22:22:17.073Z,-2.64
2023-02-27T22:25:02.665Z,-2.65
2023-02-27T22:27:47.845Z,-2.66
2023-02-27T22:30:34.369Z,-2.66
2023-02-27T22:33:19.982Z,-2.66
2023-02-27T22:36:13.602Z,-2.65
2023-02-27T22:38:59.695Z,-2.65
2023-02-27T22:41:46.232Z,-2.65
2023-02-27T22:44:31.368Z,-2.65
2023-02-27T22:47:16.935Z,-2.65
2023-02-27T22:50:03.818Z,-2.63
2023-02-27T22:52:49.273Z,-2.63
2023-02-27T22:55:34.602Z,-2.61
2023-02-27T22:58:23.676Z,-2.62
2023-02-27T23:01:19.085Z,-2.61
2023-02-27T23:04:07.660Z,-2.60
2023-02-27T23:06:56.142Z,-2.59
2023-02-27T23:09:41.922Z,-2.58
2023-02-27T23:12:28.217Z,-2.58
2023-02-27T23:15:13.655Z,-2.56
2023-02-27T23:17:58.946Z,-2.55
2023-02-27T23:20:44.334Z,-2.55
2023-02-27T23:23:29.710Z,-2.54
2023-02-27T23:26:15.975Z,-2.53
2023-02-27T23:29:01.711Z,-2.53
2023-02-27T23:31:48.154Z,-2.52
2023-02-27T23:34:49.151Z,-2.52
2023-02-27T23:37:34.866Z,-2.51
2023-02-27T23:40:22.290Z,-2.51
2023-02-27T23:43:07.731Z,-2.52
2023-02-27T23:45:53.460Z,-2.51
2023-02-27T23:48:39.276Z,-2.54
2023-02-27T23:51:24.523Z,-2.52
2023-02-27T23:54:13.564Z,-2.53
2023-02-27T23:56:58.944Z,-2.53
2023-02-27T23:59:44.398Z,-2.53
